createdAt,value
2022-10-17T08:21:58.415Z,100.00
2022-10-17T08:24:02.875Z,100.00
2022-10-17T08:26:10.779Z,100.00
2022-10-17T08:28:13.375Z,100.00
2022-10-17T08:30:16.493Z,100.00
2022-10-17T08:32:24.988Z,100.00
2022-10-17T08:34:27.270Z,100.00
2022-10-17T08:36:29.778Z,100.00
2022-10-17T08:38:35.295Z,100.00
2022-10-17T08:40:42.897Z,100.00
2022-10-17T08:42:51.274Z,100.00
2022-10-17T08:45:22.985Z,100.00
2022-10-17T08:47:33.945Z,100.00
2022-10-17T08:49:54.404Z,100.00
2022-10-17T08:52:04.595Z,100.00
2022-10-17T08:54:19.193Z,100.00
2022-10-17T08:56:44.169Z,100.00
2022-10-17T08:58:48.631Z,100.00
2022-10-17T09:01:00.083Z,100.00
2022-10-17T09:03:08.725Z,100.00
2022-10-17T09:05:40.121Z,100.00
2022-10-17T09:07:48.922Z,100.00
2022-10-17T09:10:15.586Z,100.00
2022-10-17T09:12:24.644Z,100.00
2022-10-17T09:14:58.554Z,100.00
2022-10-17T09:17:00.931Z,100.00
2022-10-17T09:19:23.618Z,100.00
2022-10-17T09:21:35.302Z,100.00
2022-10-17T09:24:08.954Z,100.00
2022-10-17T09:26:12.816Z,100.00
2022-10-17T09:28:23.999Z,100.00
2022-10-17T09:30:45.098Z,100.00
2022-10-17T09:32:48.456Z,100.00
2022-10-17T09:34:53.280Z,100.00
2022-10-17T09:36:59.051Z,100.00
2022-10-17T09:39:17.884Z,100.00
2022-10-17T09:41:50.272Z,100.00
2022-10-17T09:43:56.993Z,100.00
2022-10-17T09:46:20.309Z,100.00
2022-10-17T09:48:32.529Z,100.00
2022-10-17T09:50:35.473Z,100.00
2022-10-17T09:52:42.030Z,100.00
2022-10-17T09:54:49.124Z,100.00
2022-10-17T09:56:59.065Z,98.30
2022-10-17T09:59:01.304Z,97.34
2022-10-17T10:01:22.737Z,98.54
2022-10-17T10:03:27.398Z,97.59
2022-10-17T10:05:29.625Z,97.98
2022-10-17T10:07:35.680Z,99.34
2022-10-17T10:09:39.666Z,100.00
2022-10-17T10:11:48.646Z,100.00
2022-10-17T10:13:52.227Z,99.54
2022-10-17T10:16:13.946Z,97.33
2022-10-17T10:18:25.375Z,97.55
2022-10-17T10:20:37.387Z,95.76
2022-10-17T10:22:40.321Z,94.58
2022-10-17T10:24:42.612Z,93.54
2022-10-17T10:26:47.276Z,92.80
2022-10-17T10:28:57.206Z,92.44
2022-10-17T10:31:04.691Z,93.31
2022-10-17T10:33:11.402Z,89.37
2022-10-17T10:35:21.786Z,87.69
2022-10-17T10:37:30.894Z,86.59
2022-10-17T10:39:42.394Z,86.81
2022-10-17T10:41:48.801Z,85.43
2022-10-17T10:43:53.597Z,87.40
2022-10-17T10:45:55.948Z,86.87
2022-10-17T10:47:58.829Z,87.75
2022-10-17T10:50:36.545Z,85.38
2022-10-17T10:52:56.635Z,82.53
2022-10-17T10:55:27.924Z,80.38
2022-10-17T10:57:33.458Z,78.80
2022-10-17T10:59:53.847Z,80.69
2022-10-17T11:01:58.184Z,77.98
2022-10-17T11:04:19.598Z,74.94
2022-10-17T11:06:28.313Z,70.97
2022-10-17T11:08:45.310Z,65.30
2022-10-17T11:11:07.780Z,57.27
2022-10-17T11:13:21.166Z,52.09
2022-10-17T11:15:46.554Z,51.88
2022-10-17T11:18:02.948Z,50.16
2022-10-17T11:20:25.225Z,49.34
2022-10-17T11:22:33.141Z,47.47
2022-10-17T11:24:43.265Z,47.02
2022-10-17T11:26:53.993Z,43.65
2022-10-17T11:29:07.942Z,41.92
2022-10-17T11:31:13.617Z,38.65
2022-10-17T11:33:21.908Z,37.65
2022-10-17T11:35:31.489Z,37.56
2022-10-17T11:37:41.162Z,34.20
2022-10-17T11:40:02.075Z,35.52
2022-10-17T11:42:10.540Z,34.34
2022-10-17T11:44:21.813Z,33.78
2022-10-17T11:46:27.370Z,32.79
2022-10-17T11:48:42.361Z,32.34
2022-10-17T11:53:16.259Z,31.23
2022-10-17T11:55:23.763Z,30.67
2022-10-17T11:57:53.203Z,30.26
2022-10-17T12:00:24.439Z,30.56
2022-10-17T12:02:36.782Z,30.81
2022-10-17T12:05:07.818Z,31.43
2022-10-17T12:07:12.986Z,32.33
2022-10-17T12:09:30.706Z,33.69
2022-10-17T12:11:35.961Z,37.96
2022-10-17T12:13:38.091Z,40.88
2022-10-17T12:15:46.543Z,42.33
2022-10-17T12:17:56.504Z,44.48
2022-10-17T12:20:26.317Z,46.50
2022-10-17T12:22:28.962Z,47.79
2022-10-17T12:24:39.603Z,48.34
2022-10-17T12:26:42.128Z,49.93
2022-10-17T12:28:46.403Z,50.48
2022-10-17T12:30:56.680Z,51.47
2022-10-17T12:33:23.682Z,52.42
2022-10-17T12:35:28.516Z,51.76
2022-10-17T12:37:44.640Z,53.02
2022-10-17T12:39:46.877Z,54.23
2022-10-17T12:41:49.902Z,54.43
2022-10-17T12:43:54.484Z,54.44
2022-10-17T12:46:08.544Z,55.04
2022-10-17T12:48:11.094Z,54.12
2022-10-17T12:51:17.740Z,54.78
2022-10-17T12:53:26.041Z,53.87
2022-10-17T12:55:29.186Z,53.71
2022-10-17T12:57:41.574Z,53.80
2022-10-17T12:59:45.080Z,53.10
2022-10-17T13:01:51.589Z,52.89
2022-10-17T13:03:55.067Z,52.52
2022-10-17T13:06:05.089Z,52.83
2022-10-17T13:08:15.236Z,53.66
2022-10-17T13:10:24.509Z,54.32
2022-10-17T13:12:28.557Z,55.09
2022-10-17T13:14:32.994Z,55.60
2022-10-17T13:16:38.502Z,57.47
2022-10-17T13:18:41.408Z,56.40
2022-10-17T13:20:43.697Z,56.38
2022-10-17T13:22:46.200Z,55.91
2022-10-17T13:24:51.097Z,55.55
2022-10-17T13:26:55.687Z,56.03
2022-10-17T13:29:12.688Z,56.23
2022-10-17T13:31:35.740Z,56.14
2022-10-17T13:33:40.534Z,52.74
2022-10-17T13:35:59.556Z,52.86
2022-10-17T13:38:09.460Z,53.33
2022-10-17T13:40:40.885Z,54.79
2022-10-17T13:42:45.647Z,55.45
2022-10-17T13:44:48.794Z,56.70
2022-10-17T13:46:52.256Z,56.62
2022-10-17T13:48:54.654Z,56.37
2022-10-17T13:51:02.852Z,55.77
2022-10-17T13:53:36.618Z,56.03
2022-10-17T13:55:39.093Z,55.90
2022-10-17T13:57:41.834Z,55.52
2022-10-17T13:59:47.783Z,56.80
2022-10-17T14:01:52.165Z,57.72
2022-10-17T14:04:07.966Z,58.65
2022-10-17T14:06:20.463Z,58.64
2022-10-17T14:08:23.816Z,59.44
2022-10-17T14:10:40.182Z,60.05
2022-10-17T14:12:43.407Z,59.53
2022-10-17T14:15:09.698Z,60.69
2022-10-17T14:17:15.224Z,62.02
2022-10-17T14:19:31.275Z,63.77
2022-10-17T14:21:43.919Z,63.62
2022-10-17T14:23:47.551Z,63.71
2022-10-17T14:26:05.984Z,62.39
2022-10-17T14:28:14.295Z,63.17
2022-10-17T14:30:51.812Z,62.58
2022-10-17T14:32:48.338Z,62.65
2022-10-17T14:35:01.534Z,64.22
2022-10-17T14:37:11.441Z,64.84
2022-10-17T14:39:23.586Z,65.96
2022-10-17T14:41:44.760Z,64.27
2022-10-17T14:44:02.925Z,66.63
2022-10-17T14:46:05.445Z,67.06
2022-10-17T14:48:14.578Z,65.83
2022-10-17T14:50:32.418Z,65.68
2022-10-17T14:52:35.776Z,67.04
2022-10-17T14:54:38.480Z,66.97
2022-10-17T14:56:42.752Z,68.05
2022-10-17T14:58:45.213Z,68.92
2022-10-17T15:00:47.476Z,67.84
2022-10-17T15:02:52.556Z,67.31
2022-10-17T15:04:55.130Z,68.02
2022-10-17T15:06:57.541Z,68.80
2022-10-17T15:09:00.747Z,68.38
2022-10-17T15:11:03.020Z,68.68
2022-10-17T15:15:30.161Z,69.98
2022-10-17T15:17:34.621Z,72.77
2022-10-17T15:19:36.891Z,75.30
2022-10-17T15:21:44.698Z,76.42
2022-10-17T15:23:50.336Z,74.58
2022-10-17T15:25:52.587Z,74.23
2022-10-17T15:27:56.334Z,74.77
2022-10-17T15:29:58.774Z,76.45
2022-10-17T15:32:00.992Z,77.23
2022-10-17T15:34:03.933Z,79.58
2022-10-17T15:36:18.479Z,81.44
2022-10-17T15:38:20.688Z,80.73
2022-10-17T15:40:28.565Z,80.08
2022-10-17T15:42:31.344Z,80.61
2022-10-17T15:44:33.697Z,80.87
2022-10-17T15:46:36.495Z,83.24
2022-10-17T15:48:39.153Z,85.00
2022-10-17T15:50:41.719Z,87.91
2022-10-17T15:52:44.260Z,89.36
2022-10-17T15:54:46.524Z,88.76
2022-10-17T15:56:54.556Z,90.12
2022-10-17T15:58:58.221Z,93.08
2022-10-17T16:01:00.762Z,94.41
2022-10-17T16:03:03.305Z,95.31
2022-10-17T16:05:13.905Z,96.13
2022-10-17T16:07:17.604Z,96.71
2022-10-17T16:09:20.146Z,97.07
2022-10-17T16:11:40.731Z,97.66
2022-10-17T16:13:46.970Z,98.75
2022-10-17T16:15:49.730Z,99.63
2022-10-17T16:17:53.930Z,99.40
2022-10-17T16:19:56.268Z,99.61
2022-10-17T16:22:04.285Z,100.00
2022-10-17T16:24:09.727Z,100.00
2022-10-17T16:26:15.885Z,100.00
2022-10-17T16:28:18.642Z,100.00
2022-10-17T16:32:30.068Z,100.00
2022-10-17T16:34:32.803Z,100.00
2022-10-17T16:36:35.324Z,100.00
2022-10-17T16:38:37.584Z,100.00
2022-10-17T16:40:40.402Z,100.00
2022-10-17T16:42:43.040Z,100.00
2022-10-17T16:44:45.328Z,100.00
2022-10-17T16:46:47.871Z,100.00
2022-10-17T16:48:50.612Z,100.00
2022-10-17T16:50:52.838Z,100.00
2022-10-17T16:52:55.426Z,100.00
2022-10-17T16:54:58.088Z,100.00
2022-10-17T16:57:00.915Z,100.00
2022-10-17T16:59:04.279Z,100.00
2022-10-17T17:01:12.486Z,100.00
2022-10-17T17:03:14.817Z,100.00
2022-10-17T17:05:17.562Z,100.00
2022-10-17T17:07:21.301Z,100.00
2022-10-17T17:09:24.176Z,100.00
2022-10-17T17:11:28.398Z,100.00
2022-10-17T17:13:30.637Z,100.00
2022-10-17T17:15:32.941Z,100.00
2022-10-17T17:17:55.688Z,100.00
2022-10-17T17:19:58.795Z,100.00
2022-10-17T17:22:04.119Z,100.00
2022-10-17T17:24:07.200Z,100.00
2022-10-17T17:26:12.868Z,100.00
2022-10-17T17:28:15.155Z,100.00
2022-10-17T17:30:18.400Z,100.00
2022-10-17T17:32:20.784Z,100.00
2022-10-17T17:34:23.235Z,100.00
2022-10-17T17:36:30.591Z,100.00
2022-10-17T17:38:35.404Z,100.00
2022-10-17T17:40:49.637Z,100.00
2022-10-17T17:42:53.883Z,100.00
2022-10-17T17:44:56.612Z,100.00
2022-10-17T17:46:59.089Z,100.00
2022-10-17T17:49:02.040Z,100.00
2022-10-17T17:51:05.931Z,100.00
2022-10-17T17:53:09.574Z,100.00
2022-10-17T17:55:15.170Z,100.00
2022-10-17T17:57:17.527Z,100.00
2022-10-17T17:59:20.171Z,100.00
2022-10-17T18:01:27.455Z,100.00
2022-10-17T18:03:30.043Z,100.00
2022-10-17T18:05:32.614Z,100.00
2022-10-17T18:07:38.340Z,100.00
2022-10-17T18:09:41.325Z,100.00
2022-10-17T18:11:43.860Z,100.00
2022-10-17T18:13:48.379Z,100.00
2022-10-17T18:15:52.394Z,100.00
2022-10-17T18:17:55.233Z,100.00
2022-10-17T18:19:58.687Z,100.00
2022-10-17T18:22:01.787Z,100.00
2022-10-17T18:24:04.968Z,100.00
2022-10-17T18:26:08.479Z,100.00
2022-10-17T18:28:11.227Z,100.00
2022-10-17T18:30:15.228Z,100.00
2022-10-17T18:32:18.213Z,100.00
2022-10-17T18:34:21.465Z,100.00
2022-10-17T18:36:26.174Z,100.00
2022-10-17T18:38:28.854Z,100.00
2022-10-17T18:40:32.061Z,100.00
2022-10-17T18:42:34.662Z,100.00
2022-10-17T18:44:37.312Z,100.00
2022-10-17T18:46:41.797Z,100.00
2022-10-17T18:48:46.030Z,100.00
2022-10-17T18:50:48.771Z,100.00
2022-10-17T18:52:52.037Z,100.00
2022-10-17T18:54:55.876Z,100.00
2022-10-17T18:56:58.695Z,100.00
2022-10-17T18:59:01.906Z,100.00
2022-10-17T19:01:06.774Z,100.00
2022-10-17T19:03:09.607Z,100.00
2022-10-17T19:05:12.635Z,100.00
2022-10-17T19:07:17.473Z,100.00
2022-10-17T19:09:20.546Z,100.00
2022-10-17T19:11:25.437Z,100.00
2022-10-17T19:13:27.682Z,100.00
2022-10-17T19:15:29.967Z,100.00
2022-10-17T19:17:32.790Z,100.00
2022-10-17T19:19:35.926Z,100.00
2022-10-17T19:21:38.501Z,100.00
2022-10-17T19:23:42.073Z,100.00
2022-10-17T19:25:44.533Z,100.00
2022-10-17T19:27:47.193Z,100.00
2022-10-17T19:29:49.773Z,100.00
2022-10-17T19:31:52.551Z,100.00
2022-10-17T19:33:56.144Z,100.00
2022-10-17T19:36:08.035Z,100.00
2022-10-17T19:38:10.812Z,100.00
2022-10-17T19:40:13.641Z,100.00
2022-10-17T19:42:16.556Z,100.00
2022-10-17T19:44:18.962Z,100.00
2022-10-17T19:46:23.410Z,100.00
2022-10-17T19:48:26.829Z,100.00
2022-10-17T19:50:29.509Z,100.00
2022-10-17T19:52:32.265Z,100.00
2022-10-17T19:54:35.115Z,100.00
2022-10-17T19:56:38.293Z,100.00
2022-10-17T19:58:46.818Z,100.00
2022-10-17T20:00:52.417Z,100.00
2022-10-17T20:02:55.016Z,100.00
2022-10-17T20:05:13.895Z,100.00
2022-10-17T20:07:19.576Z,100.00
2022-10-17T20:09:22.495Z,100.00
2022-10-17T20:11:27.594Z,100.00
2022-10-17T20:13:30.015Z,100.00
2022-10-17T20:15:32.744Z,100.00
2022-10-17T20:19:42.522Z,100.00
2022-10-17T20:21:45.662Z,100.00
2022-10-17T20:23:48.040Z,100.00
2022-10-17T20:26:07.923Z,100.00
2022-10-17T20:28:21.514Z,100.00
2022-10-17T20:30:23.723Z,100.00
2022-10-17T20:32:25.902Z,100.00
2022-10-17T20:34:28.614Z,100.00
2022-10-17T20:36:31.140Z,100.00
2022-10-17T20:38:33.618Z,100.00
2022-10-17T20:40:36.646Z,100.00
2022-10-17T20:42:38.897Z,100.00
2022-10-17T20:44:41.343Z,100.00
2022-10-17T20:46:57.632Z,100.00
2022-10-17T20:49:05.685Z,100.00
2022-10-17T20:51:09.186Z,100.00
2022-10-17T20:53:36.130Z,100.00
2022-10-17T20:55:34.704Z,100.00
2022-10-17T20:57:38.068Z,100.00
2022-10-17T20:59:40.603Z,100.00
2022-10-17T21:01:43.772Z,100.00
2022-10-17T21:03:46.838Z,100.00
2022-10-17T21:05:49.407Z,100.00
2022-10-17T21:07:51.687Z,100.00
2022-10-17T21:09:53.955Z,100.00
2022-10-17T21:11:57.100Z,100.00
2022-10-17T21:14:05.233Z,100.00
2022-10-17T21:16:09.791Z,100.00
2022-10-17T21:18:12.605Z,100.00
2022-10-17T21:20:15.400Z,100.00
2022-10-17T21:22:18.072Z,100.00
2022-10-17T21:24:20.975Z,100.00
2022-10-17T21:26:23.391Z,100.00
2022-10-17T21:28:25.736Z,100.00
2022-10-17T21:30:28.232Z,100.00
2022-10-17T21:32:47.355Z,100.00
2022-10-17T21:34:52.700Z,100.00
2022-10-17T21:36:56.124Z,100.00
2022-10-17T21:38:58.656Z,100.00
2022-10-17T21:41:00.959Z,100.00
2022-10-17T21:43:03.552Z,100.00
2022-10-17T21:45:15.423Z,100.00
2022-10-17T21:47:18.272Z,100.00
2022-10-17T21:49:23.080Z,100.00
